sensor_id;sensor_type;location;lat;lon;timestamp;temperature;humidity
21592;DHT22;10958;50.892;3.992;2023-04-03T00:00:20;4.90;99.90
21592;DHT22;10958;50.892;3.992;2023-04-03T00:02:46;4.80;99.90
21592;DHT22;10958;50.892;3.992;2023-04-03T00:05:12;4.70;99.90
21592;DHT22;10958;50.892;3.992;2023-04-03T00:07:37;4.50;99.90
21592;DHT22;10958;50.892;3.992;2023-04-03T00:10:03;4.50;99.90
21592;DHT22;10958;50.892;3.992;2023-04-03T00:12:29;4.60;99.90
21592;DHT22;10958;50.892;3.992;2023-04-03T00:14:55;4.60;99.90
21592;DHT22;10958;50.892;3.992;2023-04-03T00:17:21;4.70;99.90
21592;DHT22;10958;50.892;3.992;2023-04-03T00:19:47;4.80;99.90
21592;DHT22;10958;50.892;3.992;2023-04-03T00:22:13;4.80;99.90
21592;DHT22;10958;50.892;3.992;2023-04-03T00:24:39;4.80;99.90
21592;DHT22;10958;50.892;3.992;2023-04-03T00:27:05;4.70;99.90
21592;DHT22;10958;50.892;3.992;2023-04-03T00:29:30;4.70;99.90
21592;DHT22;10958;50.892;3.992;2023-04-03T00:31:56;4.70;99.90
21592;DHT22;10958;50.892;3.992;2023-04-03T00:34:22;4.60;99.90
21592;DHT22;10958;50.892;3.992;2023-04-03T00:36:48;4.70;99.90
21592;DHT22;10958;50.892;3.992;2023-04-03T00:39:14;4.50;99.90
21592;DHT22;10958;50.892;3.992;2023-04-03T00:41:41;4.30;99.90
21592;DHT22;10958;50.892;3.992;2023-04-03T00:47:04;4.40;99.90
21592;DHT22;10958;50.892;3.992;2023-04-03T00:49:31;4.40;99.90
21592;DHT22;10958;50.892;3.992;2023-04-03T00:51:59;4.50;99.90
21592;DHT22;10958;50.892;3.992;2023-04-03T00:54:25;4.40;99.90
21592;DHT22;10958;50.892;3.992;2023-04-03T00:56:53;4.40;99.90
21592;DHT22;10958;50.892;3.992;2023-04-03T00:59:27;4.50;99.90
21592;DHT22;10958;50.892;3.992;2023-04-03T01:01:55;4.50;99.90
21592;DHT22;10958;50.892;3.992;2023-04-03T01:04:32;4.70;99.90
21592;DHT22;10958;50.892;3.992;2023-04-03T01:07:06;4.70;99.90
21592;DHT22;10958;50.892;3.992;2023-04-03T01:09:34;4.80;99.90
21592;DHT22;10958;50.892;3.992;2023-04-03T01:12:26;4.60;99.90
21592;DHT22;10958;50.892;3.992;2023-04-03T01:14:58;4.60;99.90
21592;DHT22;10958;50.892;3.992;2023-04-03T01:17:49;4.60;99.90
21592;DHT22;10958;50.892;3.992;2023-04-03T01:25:44;4.20;99.90
21592;DHT22;10958;50.892;3.992;2023-04-03T01:28:22;4.30;99.90
21592;DHT22;10958;50.892;3.992;2023-04-03T01:30:59;4.30;99.90
21592;DHT22;10958;50.892;3.992;2023-04-03T01:33:26;4.40;99.90
21592;DHT22;10958;50.892;3.992;2023-04-03T01:35:52;4.50;99.90
21592;DHT22;10958;50.892;3.992;2023-04-03T01:38:18;4.20;99.90
21592;DHT22;10958;50.892;3.992;2023-04-03T01:40:44;4.20;99.90
21592;DHT22;10958;50.892;3.992;2023-04-03T01:43:09;4.10;99.90
21592;DHT22;10958;50.892;3.992;2023-04-03T01:45:35;4.30;99.90
21592;DHT22;10958;50.892;3.992;2023-04-03T01:48:01;4.30;99.90
21592;DHT22;10958;50.892;3.992;2023-04-03T01:50:27;4.40;99.90
21592;DHT22;10958;50.892;3.992;2023-04-03T01:52:53;4.30;99.90
21592;DHT22;10958;50.892;3.992;2023-04-03T01:55:18;4.30;99.90
21592;DHT22;10958;50.892;3.992;2023-04-03T01:57:44;4.40;99.90
21592;DHT22;10958;50.892;3.992;2023-04-03T02:00:10;4.20;99.90
21592;DHT22;10958;50.892;3.992;2023-04-03T02:02:39;4.20;99.90
21592;DHT22;10958;50.892;3.992;2023-04-03T02:05:06;4.10;99.90
21592;DHT22;10958;50.892;3.992;2023-04-03T02:07:32;3.90;99.90
21592;DHT22;10958;50.892;3.992;2023-04-03T02:09:58;3.90;99.90
21592;DHT22;10958;50.892;3.992;2023-04-03T02:12:27;3.90;99.90
21592;DHT22;10958;50.892;3.992;2023-04-03T02:14:52;3.90;99.90
21592;DHT22;10958;50.892;3.992;2023-04-03T02:17:18;3.80;99.90
21592;DHT22;10958;50.892;3.992;2023-04-03T02:19:44;3.70;99.90
21592;DHT22;10958;50.892;3.992;2023-04-03T02:22:13;3.70;99.90
21592;DHT22;10958;50.892;3.992;2023-04-03T02:24:39;3.60;99.90
21592;DHT22;10958;50.892;3.992;2023-04-03T02:27:06;3.70;99.90
21592;DHT22;10958;50.892;3.992;2023-04-03T02:29:32;3.70;99.90
21592;DHT22;10958;50.892;3.992;2023-04-03T02:31:58;3.70;99.90
21592;DHT22;10958;50.892;3.992;2023-04-03T02:34:23;3.40;99.90
21592;DHT22;10958;50.892;3.992;2023-04-03T02:36:49;3.40;99.90
21592;DHT22;10958;50.892;3.992;2023-04-03T02:39:16;3.50;99.90
21592;DHT22;10958;50.892;3.992;2023-04-03T02:41:42;3.30;99.90
21592;DHT22;10958;50.892;3.992;2023-04-03T02:44:09;3.30;99.90
21592;DHT22;10958;50.892;3.992;2023-04-03T02:46:35;3.40;99.90
21592;DHT22;10958;50.892;3.992;2023-04-03T02:49:01;3.40;99.90
21592;DHT22;10958;50.892;3.992;2023-04-03T02:51:26;3.20;99.90
21592;DHT22;10958;50.892;3.992;2023-04-03T02:53:52;3.10;99.90
21592;DHT22;10958;50.892;3.992;2023-04-03T02:56:18;3.10;99.90
21592;DHT22;10958;50.892;3.992;2023-04-03T02:58:44;3.20;99.90
21592;DHT22;10958;50.892;3.992;2023-04-03T03:01:11;3.10;99.90
21592;DHT22;10958;50.892;3.992;2023-04-03T03:03:37;3.20;99.90
21592;DHT22;10958;50.892;3.992;2023-04-03T03:06:08;3.40;99.90
21592;DHT22;10958;50.892;3.992;2023-04-03T03:08:34;3.40;99.90
21592;DHT22;10958;50.892;3.992;2023-04-03T03:11:01;3.50;99.90
21592;DHT22;10958;50.892;3.992;2023-04-03T03:13:30;3.50;99.90
21592;DHT22;10958;50.892;3.992;2023-04-03T03:15:56;3.30;99.90
21592;DHT22;10958;50.892;3.992;2023-04-03T03:18:22;3.30;99.90
21592;DHT22;10958;50.892;3.992;2023-04-03T03:20:58;3.30;99.90
21592;DHT22;10958;50.892;3.992;2023-04-03T03:23:26;3.20;99.90
21592;DHT22;10958;50.892;3.992;2023-04-03T03:25:57;3.20;99.90
21592;DHT22;10958;50.892;3.992;2023-04-03T03:28:23;3.30;99.90
21592;DHT22;10958;50.892;3.992;2023-04-03T03:30:49;3.30;99.90
21592;DHT22;10958;50.892;3.992;2023-04-03T03:33:15;3.10;99.90
21592;DHT22;10958;50.892;3.992;2023-04-03T03:35:46;3.10;99.90
21592;DHT22;10958;50.892;3.992;2023-04-03T03:38:12;3.10;99.90
21592;DHT22;10958;50.892;3.992;2023-04-03T03:40:38;3.00;99.90
21592;DHT22;10958;50.892;3.992;2023-04-03T03:43:04;3.20;99.90
21592;DHT22;10958;50.892;3.992;2023-04-03T03:45:29;3.30;99.90
21592;DHT22;10958;50.892;3.992;2023-04-03T03:47:55;3.30;99.90
21592;DHT22;10958;50.892;3.992;2023-04-03T03:50:21;3.40;99.90
21592;DHT22;10958;50.892;3.992;2023-04-03T03:52:47;3.20;99.90
21592;DHT22;10958;50.892;3.992;2023-04-03T03:55:12;2.90;99.90
21592;DHT22;10958;50.892;3.992;2023-04-03T03:57:39;3.00;99.90
21592;DHT22;10958;50.892;3.992;2023-04-03T04:00:06;3.20;99.90
21592;DHT22;10958;50.892;3.992;2023-04-03T04:02:32;3.30;99.90
21592;DHT22;10958;50.892;3.992;2023-04-03T04:04:58;3.50;99.90
21592;DHT22;10958;50.892;3.992;2023-04-03T04:07:26;3.30;99.90
21592;DHT22;10958;50.892;3.992;2023-04-03T04:09:53;3.40;99.90
21592;DHT22;10958;50.892;3.992;2023-04-03T04:12:19;3.50;99.90
21592;DHT22;10958;50.892;3.992;2023-04-03T04:14:46;3.20;99.90
21592;DHT22;10958;50.892;3.992;2023-04-03T04:17:13;3.10;99.90
21592;DHT22;10958;50.892;3.992;2023-04-03T04:19:39;3.30;99.90
21592;DHT22;10958;50.892;3.992;2023-04-03T04:22:08;3.10;99.90
21592;DHT22;10958;50.892;3.992;2023-04-03T04:24:34;3.10;99.90
21592;DHT22;10958;50.892;3.992;2023-04-03T04:26:59;3.10;99.90
21592;DHT22;10958;50.892;3.992;2023-04-03T04:29:25;3.00;99.90
21592;DHT22;10958;50.892;3.992;2023-04-03T04:31:51;3.10;99.90
21592;DHT22;10958;50.892;3.992;2023-04-03T04:34:17;3.40;99.90
21592;DHT22;10958;50.892;3.992;2023-04-03T04:36:42;3.60;99.90
21592;DHT22;10958;50.892;3.992;2023-04-03T04:39:11;3.70;99.90
21592;DHT22;10958;50.892;3.992;2023-04-03T04:41:37;3.60;99.90
21592;DHT22;10958;50.892;3.992;2023-04-03T04:44:03;3.40;99.90
21592;DHT22;10958;50.892;3.992;2023-04-03T04:46:28;3.10;99.90
21592;DHT22;10958;50.892;3.992;2023-04-03T04:48:54;2.90;99.90
21592;DHT22;10958;50.892;3.992;2023-04-03T04:51:20;2.90;99.90
21592;DHT22;10958;50.892;3.992;2023-04-03T04:53:46;3.10;99.90
21592;DHT22;10958;50.892;3.992;2023-04-03T04:56:15;2.90;99.90
21592;DHT22;10958;50.892;3.992;2023-04-03T04:58:41;2.80;99.90
21592;DHT22;10958;50.892;3.992;2023-04-03T05:01:09;3.00;99.90
21592;DHT22;10958;50.892;3.992;2023-04-03T05:03:37;3.00;99.90
21592;DHT22;10958;50.892;3.992;2023-04-03T05:06:03;3.00;99.90
21592;DHT22;10958;50.892;3.992;2023-04-03T05:08:28;3.10;99.90
21592;DHT22;10958;50.892;3.992;2023-04-03T05:10:57;3.30;99.90
21592;DHT22;10958;50.892;3.992;2023-04-03T05:13:23;3.20;99.90
21592;DHT22;10958;50.892;3.992;2023-04-03T05:15:49;3.10;99.90
21592;DHT22;10958;50.892;3.992;2023-04-03T05:18:15;3.20;99.90
21592;DHT22;10958;50.892;3.992;2023-04-03T05:20:41;3.20;99.90
21592;DHT22;10958;50.892;3.992;2023-04-03T05:23:09;3.00;99.90
21592;DHT22;10958;50.892;3.992;2023-04-03T05:25:37;3.00;99.90
21592;DHT22;10958;50.892;3.992;2023-04-03T05:28:04;3.00;99.90
21592;DHT22;10958;50.892;3.992;2023-04-03T05:30:30;2.90;99.90
21592;DHT22;10958;50.892;3.992;2023-04-03T05:32:56;2.90;99.90
21592;DHT22;10958;50.892;3.992;2023-04-03T05:35:22;2.70;99.90
21592;DHT22;10958;50.892;3.992;2023-04-03T05:37:48;2.90;99.90
21592;DHT22;10958;50.892;3.992;2023-04-03T05:40:14;3.10;99.90
21592;DHT22;10958;50.892;3.992;2023-04-03T05:42:40;3.10;99.90
21592;DHT22;10958;50.892;3.992;2023-04-03T05:45:06;3.20;99.90
21592;DHT22;10958;50.892;3.992;2023-04-03T05:47:32;3.10;99.90
21592;DHT22;10958;50.892;3.992;2023-04-03T05:49:58;3.10;99.90
21592;DHT22;10958;50.892;3.992;2023-04-03T05:52:29;3.20;99.90
21592;DHT22;10958;50.892;3.992;2023-04-03T05:54:56;3.20;99.90
21592;DHT22;10958;50.892;3.992;2023-04-03T05:57:22;3.50;99.90
21592;DHT22;10958;50.892;3.992;2023-04-03T05:59:48;3.60;99.90
21592;DHT22;10958;50.892;3.992;2023-04-03T06:02:17;3.60;99.90
21592;DHT22;10958;50.892;3.992;2023-04-03T06:04:43;3.60;99.90
21592;DHT22;10958;50.892;3.992;2023-04-03T06:07:14;3.50;99.90
21592;DHT22;10958;50.892;3.992;2023-04-03T06:09:41;3.50;99.90
21592;DHT22;10958;50.892;3.992;2023-04-03T06:12:08;3.60;99.90
21592;DHT22;10958;50.892;3.992;2023-04-03T06:14:33;3.70;99.90
21592;DHT22;10958;50.892;3.992;2023-04-03T06:16:59;3.60;99.90
21592;DHT22;10958;50.892;3.992;2023-04-03T06:19:26;3.70;99.90
21592;DHT22;10958;50.892;3.992;2023-04-03T06:21:52;3.80;99.90
21592;DHT22;10958;50.892;3.992;2023-04-03T06:24:18;3.80;99.90
21592;DHT22;10958;50.892;3.992;2023-04-03T06:26:47;4.00;99.90
21592;DHT22;10958;50.892;3.992;2023-04-03T06:29:13;4.20;99.90
21592;DHT22;10958;50.892;3.992;2023-04-03T06:31:39;4.10;99.90
21592;DHT22;10958;50.892;3.992;2023-04-03T06:34:05;4.10;99.90
21592;DHT22;10958;50.892;3.992;2023-04-03T06:36:33;4.10;99.90
21592;DHT22;10958;50.892;3.992;2023-04-03T06:38:58;4.70;99.90
21592;DHT22;10958;50.892;3.992;2023-04-03T06:41:25;5.60;99.90
21592;DHT22;10958;50.892;3.992;2023-04-03T06:43:51;6.40;99.90
21592;DHT22;10958;50.892;3.992;2023-04-03T06:46:20;7.50;99.90
21592;DHT22;10958;50.892;3.992;2023-04-03T06:48:46;8.60;99.90
21592;DHT22;10958;50.892;3.992;2023-04-03T06:51:21;9.30;99.90
21592;DHT22;10958;50.892;3.992;2023-04-03T06:53:49;10.00;99.90
21592;DHT22;10958;50.892;3.992;2023-04-03T06:56:16;10.10;99.90
21592;DHT22;10958;50.892;3.992;2023-04-03T06:58:43;10.40;99.90
21592;DHT22;10958;50.892;3.992;2023-04-03T07:01:11;10.90;99.90
21592;DHT22;10958;50.892;3.992;2023-04-03T07:03:38;11.50;99.90
21592;DHT22;10958;50.892;3.992;2023-04-03T07:06:05;11.50;99.90
21592;DHT22;10958;50.892;3.992;2023-04-03T07:08:31;11.50;99.90
21592;DHT22;10958;50.892;3.992;2023-04-03T07:11:00;12.00;99.90
21592;DHT22;10958;50.892;3.992;2023-04-03T07:13:26;12.20;99.90
21592;DHT22;10958;50.892;3.992;2023-04-03T07:15:53;12.20;99.90
21592;DHT22;10958;50.892;3.992;2023-04-03T07:18:22;11.90;99.90
21592;DHT22;10958;50.892;3.992;2023-04-03T07:20:52;11.90;99.90
21592;DHT22;10958;50.892;3.992;2023-04-03T07:23:18;12.40;99.90
21592;DHT22;10958;50.892;3.992;2023-04-03T07:25:49;12.70;99.90
21592;DHT22;10958;50.892;3.992;2023-04-03T07:28:17;12.00;99.90
21592;DHT22;10958;50.892;3.992;2023-04-03T07:30:49;12.50;99.90
21592;DHT22;10958;50.892;3.992;2023-04-03T07:33:19;12.60;99.90
21592;DHT22;10958;50.892;3.992;2023-04-03T07:35:46;12.60;99.90
21592;DHT22;10958;50.892;3.992;2023-04-03T07:38:38;12.70;99.90
21592;DHT22;10958;50.892;3.992;2023-04-03T07:41:06;12.60;99.90
21592;DHT22;10958;50.892;3.992;2023-04-03T07:43:32;12.70;99.90
21592;DHT22;10958;50.892;3.992;2023-04-03T07:45:59;12.40;99.90
21592;DHT22;10958;50.892;3.992;2023-04-03T07:48:26;12.30;99.90
21592;DHT22;10958;50.892;3.992;2023-04-03T07:50:52;12.20;99.90
21592;DHT22;10958;50.892;3.992;2023-04-03T07:53:22;11.80;99.90
21592;DHT22;10958;50.892;3.992;2023-04-03T07:55:48;12.50;99.90
21592;DHT22;10958;50.892;3.992;2023-04-03T07:58:20;12.90;99.90
21592;DHT22;10958;50.892;3.992;2023-04-03T08:00:49;12.80;99.90
21592;DHT22;10958;50.892;3.992;2023-04-03T08:03:15;12.80;99.90
21592;DHT22;10958;50.892;3.992;2023-04-03T08:05:46;13.00;99.90
21592;DHT22;10958;50.892;3.992;2023-04-03T08:08:15;12.60;99.90
21592;DHT22;10958;50.892;3.992;2023-04-03T08:10:43;12.70;99.90
21592;DHT22;10958;50.892;3.992;2023-04-03T08:13:09;12.90;99.90
21592;DHT22;10958;50.892;3.992;2023-04-03T08:15:36;12.10;99.90
21592;DHT22;10958;50.892;3.992;2023-04-03T08:18:05;11.90;99.90
21592;DHT22;10958;50.892;3.992;2023-04-03T08:20:31;11.90;99.90
21592;DHT22;10958;50.892;3.992;2023-04-03T08:22:57;12.00;99.90
21592;DHT22;10958;50.892;3.992;2023-04-03T08:25:24;11.80;99.90
21592;DHT22;10958;50.892;3.992;2023-04-03T08:27:50;12.30;99.90
21592;DHT22;10958;50.892;3.992;2023-04-03T08:30:19;12.20;99.90
21592;DHT22;10958;50.892;3.992;2023-04-03T08:32:47;12.50;99.90
21592;DHT22;10958;50.892;3.992;2023-04-03T08:35:13;12.90;99.90
21592;DHT22;10958;50.892;3.992;2023-04-03T08:37:40;12.90;99.90
21592;DHT22;10958;50.892;3.992;2023-04-03T08:40:07;13.40;99.90
21592;DHT22;10958;50.892;3.992;2023-04-03T08:48:05;12.80;99.90
21592;DHT22;10958;50.892;3.992;2023-04-03T08:50:45;12.20;99.90
21592;DHT22;10958;50.892;3.992;2023-04-03T08:53:15;12.70;99.90
21592;DHT22;10958;50.892;3.992;2023-04-03T08:55:46;12.30;99.90
21592;DHT22;10958;50.892;3.992;2023-04-03T08:58:16;12.20;99.90
21592;DHT22;10958;50.892;3.992;2023-04-03T09:03:19;12.00;99.90
21592;DHT22;10958;50.892;3.992;2023-04-03T09:08:40;12.70;99.90
21592;DHT22;10958;50.892;3.992;2023-04-03T09:17:02;12.50;99.90
21592;DHT22;10958;50.892;3.992;2023-04-03T09:22:23;11.80;99.90
21592;DHT22;10958;50.892;3.992;2023-04-03T09:24:57;12.20;99.90
21592;DHT22;10958;50.892;3.992;2023-04-03T09:27:24;11.80;99.90
21592;DHT22;10958;50.892;3.992;2023-04-03T09:29:55;11.30;99.90
21592;DHT22;10958;50.892;3.992;2023-04-03T09:32:33;11.70;99.90
21592;DHT22;10958;50.892;3.992;2023-04-03T09:35:09;11.60;99.90
21592;DHT22;10958;50.892;3.992;2023-04-03T09:38:31;11.40;99.90
21592;DHT22;10958;50.892;3.992;2023-04-03T09:40:39;11.60;99.90
21592;DHT22;10958;50.892;3.992;2023-04-03T09:43:19;12.00;99.90
21592;DHT22;10958;50.892;3.992;2023-04-03T09:45:47;11.80;99.90
21592;DHT22;10958;50.892;3.992;2023-04-03T09:48:17;11.50;99.90
21592;DHT22;10958;50.892;3.992;2023-04-03T09:53:42;11.80;99.90
21592;DHT22;10958;50.892;3.992;2023-04-03T09:58:50;11.90;99.90
21592;DHT22;10958;50.892;3.992;2023-04-03T10:14:17;12.30;99.90
21592;DHT22;10958;50.892;3.992;2023-04-03T10:16:54;13.60;99.90
21592;DHT22;10958;50.892;3.992;2023-04-03T10:22:20;12.40;99.90
21592;DHT22;10958;50.892;3.992;2023-04-03T10:24:56;11.70;99.90
21592;DHT22;10958;50.892;3.992;2023-04-03T10:36:23;10.80;99.90
21592;DHT22;10958;50.892;3.992;2023-04-03T10:39:14;10.80;99.90
21592;DHT22;10958;50.892;3.992;2023-04-03T10:47:28;10.50;99.90
21592;DHT22;10958;50.892;3.992;2023-04-03T10:57:58;10.30;99.90
21592;DHT22;10958;50.892;3.992;2023-04-03T11:00:41;9.90;99.90
21592;DHT22;10958;50.892;3.992;2023-04-03T11:03:20;9.90;99.90
21592;DHT22;10958;50.892;3.992;2023-04-03T11:05:51;10.20;99.90
21592;DHT22;10958;50.892;3.992;2023-04-03T11:11:24;10.20;99.90
21592;DHT22;10958;50.892;3.992;2023-04-03T11:13:58;10.30;99.90
21592;DHT22;10958;50.892;3.992;2023-04-03T11:16:29;10.40;99.90
21592;DHT22;10958;50.892;3.992;2023-04-03T11:21:45;10.30;99.90
21592;DHT22;10958;50.892;3.992;2023-04-03T11:24:22;10.20;99.90
21592;DHT22;10958;50.892;3.992;2023-04-03T11:26:50;10.00;99.90
21592;DHT22;10958;50.892;3.992;2023-04-03T11:29:21;10.10;99.90
21592;DHT22;10958;50.892;3.992;2023-04-03T11:34:38;10.60;99.90
21592;DHT22;10958;50.892;3.992;2023-04-03T11:37:43;10.40;99.90
21592;DHT22;10958;50.892;3.992;2023-04-03T11:40:37;10.60;99.90
21592;DHT22;10958;50.892;3.992;2023-04-03T11:43:27;10.50;99.90
21592;DHT22;10958;50.892;3.992;2023-04-03T11:46:00;10.70;99.90
21592;DHT22;10958;50.892;3.992;2023-04-03T11:50:55;10.70;99.90
21592;DHT22;10958;50.892;3.992;2023-04-03T11:53:44;10.70;99.90
21592;DHT22;10958;50.892;3.992;2023-04-03T12:04:12;10.60;99.90
21592;DHT22;10958;50.892;3.992;2023-04-03T12:09:27;10.40;99.90
21592;DHT22;10958;50.892;3.992;2023-04-03T12:11:55;10.30;99.90
21592;DHT22;10958;50.892;3.992;2023-04-03T12:14:24;10.30;99.90
21592;DHT22;10958;50.892;3.992;2023-04-03T12:16:53;10.40;99.90
21592;DHT22;10958;50.892;3.992;2023-04-03T12:19:33;10.40;99.90
21592;DHT22;10958;50.892;3.992;2023-04-03T12:24:29;10.70;99.90
21592;DHT22;10958;50.892;3.992;2023-04-03T12:48:50;10.60;99.90
21592;DHT22;10958;50.892;3.992;2023-04-03T12:51:26;10.70;99.90
21592;DHT22;10958;50.892;3.992;2023-04-03T12:54:00;10.80;99.90
21592;DHT22;10958;50.892;3.992;2023-04-03T12:56:29;10.80;99.90
21592;DHT22;10958;50.892;3.992;2023-04-03T12:59:13;10.90;99.90
21592;DHT22;10958;50.892;3.992;2023-04-03T13:01:41;10.90;99.90
21592;DHT22;10958;50.892;3.992;2023-04-03T13:04:10;10.90;99.90
21592;DHT22;10958;50.892;3.992;2023-04-03T13:06:42;10.90;99.90
21592;DHT22;10958;50.892;3.992;2023-04-03T13:09:26;10.80;99.90
21592;DHT22;10958;50.892;3.992;2023-04-03T13:12:14;10.70;99.90
21592;DHT22;10958;50.892;3.992;2023-04-03T13:14:52;10.80;99.90
21592;DHT22;10958;50.892;3.992;2023-04-03T13:17:21;10.70;99.90
21592;DHT22;10958;50.892;3.992;2023-04-03T13:19:47;10.70;99.90
21592;DHT22;10958;50.892;3.992;2023-04-03T13:22:36;10.40;99.90
21592;DHT22;10958;50.892;3.992;2023-04-03T13:25:11;10.60;99.90
21592;DHT22;10958;50.892;3.992;2023-04-03T13:27:39;10.40;99.90
21592;DHT22;10958;50.892;3.992;2023-04-03T13:30:33;10.60;99.90
21592;DHT22;10958;50.892;3.992;2023-04-03T13:33:02;10.80;99.90
21592;DHT22;10958;50.892;3.992;2023-04-03T13:35:41;10.80;99.90
21592;DHT22;10958;50.892;3.992;2023-04-03T13:38:28;10.90;99.90
21592;DHT22;10958;50.892;3.992;2023-04-03T13:40:59;10.80;99.90
21592;DHT22;10958;50.892;3.992;2023-04-03T13:43:36;10.60;99.90
21592;DHT22;10958;50.892;3.992;2023-04-03T13:48:49;10.80;99.90
21592;DHT22;10958;50.892;3.992;2023-04-03T13:51:27;10.80;99.90
21592;DHT22;10958;50.892;3.992;2023-04-03T13:53:57;10.90;99.90
21592;DHT22;10958;50.892;3.992;2023-04-03T13:56:35;10.80;99.90
21592;DHT22;10958;50.892;3.992;2023-04-03T14:07:12;10.60;99.90
21592;DHT22;10958;50.892;3.992;2023-04-03T14:09:37;10.60;99.90
21592;DHT22;10958;50.892;3.992;2023-04-03T14:12:21;10.70;99.90
21592;DHT22;10958;50.892;3.992;2023-04-03T14:14:49;10.90;99.90
21592;DHT22;10958;50.892;3.992;2023-04-03T14:17:21;11.00;99.90
21592;DHT22;10958;50.892;3.992;2023-04-03T14:19:49;10.90;99.90
21592;DHT22;10958;50.892;3.992;2023-04-03T14:22:26;10.90;99.90
21592;DHT22;10958;50.892;3.992;2023-04-03T14:24:54;10.90;99.90
21592;DHT22;10958;50.892;3.992;2023-04-03T14:27:29;11.00;99.90
21592;DHT22;10958;50.892;3.992;2023-04-03T14:29:57;10.90;99.90
21592;DHT22;10958;50.892;3.992;2023-04-03T14:32:25;10.80;99.90
21592;DHT22;10958;50.892;3.992;2023-04-03T14:34:52;10.80;99.90
21592;DHT22;10958;50.892;3.992;2023-04-03T14:37:21;10.70;99.90
21592;DHT22;10958;50.892;3.992;2023-04-03T14:39:51;10.70;99.90
21592;DHT22;10958;50.892;3.992;2023-04-03T14:42:26;10.70;99.90
21592;DHT22;10958;50.892;3.992;2023-04-03T14:44:55;10.70;99.90
21592;DHT22;10958;50.892;3.992;2023-04-03T14:47:26;10.80;99.90
21592;DHT22;10958;50.892;3.992;2023-04-03T14:49:53;10.80;99.90
21592;DHT22;10958;50.892;3.992;2023-04-03T14:52:31;10.80;99.90
21592;DHT22;10958;50.892;3.992;2023-04-03T14:54:59;10.80;99.90
21592;DHT22;10958;50.892;3.992;2023-04-03T14:57:27;10.80;99.90
21592;DHT22;10958;50.892;3.992;2023-04-03T14:59:53;10.80;99.90
21592;DHT22;10958;50.892;3.992;2023-04-03T15:04:58;10.60;99.90
21592;DHT22;10958;50.892;3.992;2023-04-03T15:07:27;10.70;99.90
21592;DHT22;10958;50.892;3.992;2023-04-03T15:09:54;10.90;99.90
21592;DHT22;10958;50.892;3.992;2023-04-03T15:12:24;11.00;99.90
21592;DHT22;10958;50.892;3.992;2023-04-03T15:14:50;10.80;99.90
21592;DHT22;10958;50.892;3.992;2023-04-03T15:17:19;10.80;99.90
21592;DHT22;10958;50.892;3.992;2023-04-03T15:19:46;10.90;99.90
21592;DHT22;10958;50.892;3.992;2023-04-03T15:22:17;11.00;99.90
21592;DHT22;10958;50.892;3.992;2023-04-03T15:24:44;11.00;99.90
21592;DHT22;10958;50.892;3.992;2023-04-03T15:27:13;11.00;99.90
21592;DHT22;10958;50.892;3.992;2023-04-03T15:29:42;10.90;99.90
21592;DHT22;10958;50.892;3.992;2023-04-03T15:32:10;10.90;99.90
21592;DHT22;10958;50.892;3.992;2023-04-03T15:34:36;10.90;99.90
21592;DHT22;10958;50.892;3.992;2023-04-03T15:37:02;10.90;99.90
21592;DHT22;10958;50.892;3.992;2023-04-03T15:39:28;10.80;99.90
21592;DHT22;10958;50.892;3.992;2023-04-03T15:41:57;10.70;99.90
21592;DHT22;10958;50.892;3.992;2023-04-03T15:44:25;10.50;99.90
21592;DHT22;10958;50.892;3.992;2023-04-03T15:46:51;10.60;99.90
21592;DHT22;10958;50.892;3.992;2023-04-03T15:49:18;10.60;99.90
21592;DHT22;10958;50.892;3.992;2023-04-03T15:51:45;10.60;99.90
21592;DHT22;10958;50.892;3.992;2023-04-03T15:54:11;10.60;99.90
21592;DHT22;10958;50.892;3.992;2023-04-03T15:56:37;10.70;99.90
21592;DHT22;10958;50.892;3.992;2023-04-03T15:59:03;10.50;99.90
21592;DHT22;10958;50.892;3.992;2023-04-03T16:01:29;10.60;99.90
21592;DHT22;10958;50.892;3.992;2023-04-03T16:03:55;10.50;99.90
21592;DHT22;10958;50.892;3.992;2023-04-03T16:06:21;10.40;99.90
21592;DHT22;10958;50.892;3.992;2023-04-03T16:08:48;10.40;99.90
21592;DHT22;10958;50.892;3.992;2023-04-03T16:11:17;10.30;99.90
21592;DHT22;10958;50.892;3.992;2023-04-03T16:13:46;10.30;99.90
21592;DHT22;10958;50.892;3.992;2023-04-03T16:16:11;10.30;99.90
21592;DHT22;10958;50.892;3.992;2023-04-03T16:18:38;10.30;99.90
21592;DHT22;10958;50.892;3.992;2023-04-03T16:21:04;10.40;99.90
21592;DHT22;10958;50.892;3.992;2023-04-03T16:23:31;10.40;99.90
21592;DHT22;10958;50.892;3.992;2023-04-03T16:25:57;10.40;99.90
21592;DHT22;10958;50.892;3.992;2023-04-03T16:28:25;10.40;99.90
21592;DHT22;10958;50.892;3.992;2023-04-03T16:30:51;10.40;99.90
21592;DHT22;10958;50.892;3.992;2023-04-03T16:33:17;10.50;99.90
21592;DHT22;10958;50.892;3.992;2023-04-03T16:35:43;10.50;99.90
21592;DHT22;10958;50.892;3.992;2023-04-03T16:38:09;10.50;99.90
21592;DHT22;10958;50.892;3.992;2023-04-03T16:40:35;10.50;99.90
21592;DHT22;10958;50.892;3.992;2023-04-03T16:43:01;10.40;99.90
21592;DHT22;10958;50.892;3.992;2023-04-03T16:45:27;10.30;99.90
21592;DHT22;10958;50.892;3.992;2023-04-03T16:47:53;10.20;99.90
21592;DHT22;10958;50.892;3.992;2023-04-03T16:50:22;10.20;99.90
21592;DHT22;10958;50.892;3.992;2023-04-03T16:52:48;10.10;99.90
21592;DHT22;10958;50.892;3.992;2023-04-03T16:55:14;10.00;99.90
21592;DHT22;10958;50.892;3.992;2023-04-03T16:57:40;10.00;99.90
21592;DHT22;10958;50.892;3.992;2023-04-03T17:00:06;10.00;99.90
21592;DHT22;10958;50.892;3.992;2023-04-03T17:02:33;10.00;99.90
21592;DHT22;10958;50.892;3.992;2023-04-03T17:05:01;9.90;99.90
21592;DHT22;10958;50.892;3.992;2023-04-03T17:07:29;9.80;99.90
21592;DHT22;10958;50.892;3.992;2023-04-03T17:09:55;9.80;99.90
21592;DHT22;10958;50.892;3.992;2023-04-03T17:12:21;9.70;99.90
21592;DHT22;10958;50.892;3.992;2023-04-03T17:14:50;9.60;99.90
21592;DHT22;10958;50.892;3.992;2023-04-03T17:17:20;9.60;99.90
21592;DHT22;10958;50.892;3.992;2023-04-03T17:19:46;9.70;99.90
21592;DHT22;10958;50.892;3.992;2023-04-03T17:22:13;9.50;99.90
21592;DHT22;10958;50.892;3.992;2023-04-03T17:24:39;9.50;99.90
21592;DHT22;10958;50.892;3.992;2023-04-03T17:27:07;9.50;99.90
21592;DHT22;10958;50.892;3.992;2023-04-03T17:29:33;9.50;99.90
21592;DHT22;10958;50.892;3.992;2023-04-03T17:32:01;9.40;99.90
21592;DHT22;10958;50.892;3.992;2023-04-03T17:34:27;9.30;99.90
21592;DHT22;10958;50.892;3.992;2023-04-03T17:36:54;9.20;99.90
21592;DHT22;10958;50.892;3.992;2023-04-03T17:39:20;9.20;99.90
21592;DHT22;10958;50.892;3.992;2023-04-03T17:41:46;9.10;99.90
21592;DHT22;10958;50.892;3.992;2023-04-03T17:44:13;9.10;99.90
21592;DHT22;10958;50.892;3.992;2023-04-03T17:46:40;9.10;99.90
21592;DHT22;10958;50.892;3.992;2023-04-03T17:49:09;9.10;99.90
21592;DHT22;10958;50.892;3.992;2023-04-03T17:51:39;8.90;99.90
21592;DHT22;10958;50.892;3.992;2023-04-03T17:54:06;9.00;99.90
21592;DHT22;10958;50.892;3.992;2023-04-03T17:56:32;9.00;99.90
21592;DHT22;10958;50.892;3.992;2023-04-03T17:59:01;8.90;99.90